createdAt,value
2023-04-10T00:00:33.015Z,13.77
2023-04-10T00:03:03.545Z,13.63
2023-04-10T00:05:30.898Z,14.05
2023-04-10T00:07:57.937Z,13.80
2023-04-10T00:10:26.592Z,13.27
2023-04-10T00:12:54.121Z,13.13
2023-04-10T00:15:21.216Z,12.85
2023-04-10T00:17:50.604Z,14.35
2023-04-10T00:20:17.722Z,13.90
2023-04-10T00:22:44.583Z,14.68
2023-04-10T00:25:11.567Z,13.60
2023-04-10T00:27:38.499Z,13.55
2023-04-10T00:30:06.405Z,13.05
2023-04-10T00:32:33.342Z,13.48
2023-04-10T00:35:00.298Z,14.10
2023-04-10T00:37:27.569Z,12.82
2023-04-10T00:39:54.441Z,12.85
2023-04-10T00:42:21.357Z,13.77
2023-04-10T00:44:48.325Z,13.20
2023-04-10T00:47:15.713Z,13.45
2023-04-10T00:49:43.520Z,12.98
2023-04-10T00:52:10.826Z,13.43
2023-04-10T00:54:38.398Z,12.80
2023-04-10T00:57:05.384Z,13.75
2023-04-10T00:59:32.580Z,14.43
2023-04-10T01:02:00.024Z,13.23
2023-04-10T01:04:28.895Z,13.63
2023-04-10T01:07:46.122Z,13.05
2023-04-10T01:10:26.961Z,13.63
2023-04-10T01:13:12.784Z,12.57
2023-04-10T01:15:48.161Z,12.70
2023-04-10T01:18:34.404Z,13.63
2023-04-10T01:21:03.083Z,12.90
2023-04-10T01:23:45.517Z,12.68
2023-04-10T01:26:17.425Z,13.23
2023-04-10T01:29:04.885Z,12.93
2023-04-10T01:31:42.014Z,11.95
2023-04-10T01:34:16.309Z,11.95
2023-04-10T01:36:56.654Z,12.35
2023-04-10T01:39:26.602Z,12.73
2023-04-10T01:41:54.608Z,12.68
2023-04-10T01:44:32.797Z,12.05
2023-04-10T01:47:02.509Z,12.40
2023-04-10T01:49:32.053Z,12.15
2023-04-10T01:52:04.577Z,11.57
2023-04-10T01:54:33.631Z,12.27
2023-04-10T01:57:04.169Z,12.07
2023-04-10T01:59:39.584Z,12.73
2023-04-10T02:02:07.932Z,12.75
2023-04-10T02:04:34.980Z,13.02
2023-04-10T02:07:05.145Z,13.48
2023-04-10T02:09:52.790Z,12.25
2023-04-10T02:12:26.372Z,12.77
2023-04-10T02:14:56.425Z,15.20
2023-04-10T02:17:28.886Z,13.20
2023-04-10T02:20:00.390Z,12.65
2023-04-10T02:22:28.206Z,13.50
2023-04-10T02:24:55.235Z,13.45
2023-04-10T02:27:35.125Z,14.02
2023-04-10T02:30:05.969Z,13.75
2023-04-10T02:32:35.525Z,13.13
2023-04-10T02:35:03.261Z,14.88
2023-04-10T02:37:31.360Z,14.27
2023-04-10T02:40:00.713Z,14.18
2023-04-10T02:42:33.787Z,19.38
2023-04-10T02:45:01.897Z,17.10
2023-04-10T02:47:34.882Z,14.52
2023-04-10T02:50:02.577Z,15.73
2023-04-10T02:52:34.490Z,14.95
2023-04-10T02:55:01.453Z,15.05
2023-04-10T02:57:35.091Z,13.70
2023-04-10T03:00:03.025Z,13.35
2023-04-10T03:02:35.909Z,13.50
2023-04-10T03:05:12.833Z,13.82
2023-04-10T03:07:39.696Z,13.70
2023-04-10T03:10:07.154Z,13.40
2023-04-10T03:12:34.104Z,13.15
2023-04-10T03:15:01.295Z,16.33
2023-04-10T03:17:28.269Z,12.85
2023-04-10T03:19:55.495Z,14.55
2023-04-10T03:22:23.234Z,13.75
2023-04-10T03:24:50.080Z,14.48
2023-04-10T03:27:17.638Z,13.90
2023-04-10T03:29:44.463Z,13.40
2023-04-10T03:32:12.017Z,14.52
2023-04-10T03:34:39.070Z,14.00
2023-04-10T03:37:05.929Z,12.70
2023-04-10T03:39:33.623Z,12.52
2023-04-10T03:42:00.836Z,13.07
2023-04-10T03:44:27.682Z,13.35
2023-04-10T03:46:54.684Z,14.48
2023-04-10T03:49:21.860Z,13.55
2023-04-10T03:51:48.901Z,12.68
2023-04-10T03:54:15.837Z,14.13
2023-04-10T03:56:42.837Z,13.32
2023-04-10T03:59:11.676Z,12.80
2023-04-10T04:01:41.186Z,13.60
2023-04-10T04:04:10.914Z,13.07
2023-04-10T04:06:56.236Z,13.52
2023-04-10T04:09:23.038Z,14.55
2023-04-10T04:12:08.498Z,13.40
2023-04-10T04:15:00.045Z,13.23
2023-04-10T04:17:47.233Z,13.93
2023-04-10T04:20:32.623Z,14.18
2023-04-10T04:23:28.675Z,12.25
2023-04-10T04:26:01.691Z,12.25
2023-04-10T04:28:47.468Z,13.32
2023-04-10T04:31:32.786Z,13.40
2023-04-10T04:34:18.489Z,14.18
2023-04-10T04:37:05.603Z,13.48
2023-04-10T04:39:46.743Z,13.27
2023-04-10T04:45:12.411Z,14.05
2023-04-10T04:47:42.327Z,13.23
2023-04-10T04:50:41.256Z,12.90
2023-04-10T04:53:26.959Z,13.85
2023-04-10T04:56:05.893Z,14.60
2023-04-10T04:58:51.240Z,14.20
2023-04-10T05:01:53.374Z,13.40
2023-04-10T05:04:40.923Z,14.13
2023-04-10T05:07:16.874Z,13.77
2023-04-10T05:09:55.258Z,14.05
2023-04-10T05:12:46.567Z,14.30
2023-04-10T05:15:37.873Z,14.35
2023-04-10T05:18:11.888Z,14.68
2023-04-10T05:20:56.497Z,16.23
2023-04-10T05:23:41.033Z,15.98
2023-04-10T05:26:44.071Z,17.65
2023-04-10T05:29:33.714Z,15.82
2023-04-10T05:32:26.887Z,16.38
2023-04-10T05:35:19.678Z,22.75
2023-04-10T05:38:03.602Z,15.40
2023-04-10T05:40:45.821Z,16.55
2023-04-10T05:43:36.643Z,17.98
2023-04-10T05:46:22.021Z,15.65
2023-04-10T05:49:09.275Z,17.73
2023-04-10T05:51:43.663Z,17.08
2023-04-10T05:54:29.089Z,17.25
2023-04-10T05:57:22.155Z,17.67
2023-04-10T06:00:09.890Z,17.15
2023-04-10T06:03:03.731Z,16.00
2023-04-10T06:05:32.408Z,15.38
2023-04-10T06:08:04.044Z,18.27
2023-04-10T06:10:31.246Z,17.98
2023-04-10T06:12:58.090Z,16.92
2023-04-10T06:15:26.176Z,17.58
2023-04-10T06:17:54.188Z,18.00
2023-04-10T06:20:21.629Z,19.05
2023-04-10T06:22:50.717Z,17.90
2023-04-10T06:25:17.683Z,16.77
2023-04-10T06:27:44.727Z,18.98
2023-04-10T06:30:11.942Z,18.67
2023-04-10T06:32:39.342Z,20.65
2023-04-10T06:35:06.482Z,17.90
2023-04-10T06:37:33.406Z,17.35
2023-04-10T06:40:08.891Z,18.23
2023-04-10T06:42:36.844Z,18.60
2023-04-10T06:45:12.851Z,21.15
2023-04-10T06:47:40.132Z,19.42
2023-04-10T06:50:07.287Z,18.20
2023-04-10T06:52:35.505Z,19.38
2023-04-10T06:55:03.703Z,18.35
2023-04-10T06:57:30.598Z,17.33
2023-04-10T06:59:57.609Z,19.33
2023-04-10T07:02:24.656Z,18.73
2023-04-10T07:04:53.720Z,20.17
2023-04-10T07:07:20.796Z,18.35
2023-04-10T07:09:47.720Z,18.08
2023-04-10T07:12:16.636Z,18.67
2023-04-10T07:14:43.599Z,18.67
2023-04-10T07:17:10.409Z,18.40
2023-04-10T07:19:38.244Z,19.63
2023-04-10T07:22:05.090Z,25.25
2023-04-10T07:24:32.776Z,18.85
2023-04-10T07:39:38.205Z,17.98
2023-04-10T07:42:05.181Z,20.42
2023-04-10T07:44:32.053Z,19.13
2023-04-10T07:46:59.130Z,18.95
2023-04-10T07:49:26.412Z,17.40
2023-04-10T07:51:53.401Z,18.40
2023-04-10T07:54:20.370Z,17.83
2023-04-10T07:56:48.159Z,19.67
2023-04-10T07:59:15.010Z,18.10
2023-04-10T08:01:41.980Z,19.55
2023-04-10T08:04:09.356Z,17.90
2023-04-10T08:06:36.372Z,18.00
2023-04-10T08:09:03.296Z,16.95
2023-04-10T08:14:02.153Z,19.10
2023-04-10T08:16:32.105Z,18.45
2023-04-10T08:19:00.400Z,17.80
2023-04-10T08:21:29.468Z,18.38
2023-04-10T08:24:03.809Z,16.20
2023-04-10T08:26:30.855Z,18.58
2023-04-10T08:28:59.152Z,17.77
2023-04-10T08:31:28.255Z,19.05
2023-04-10T08:33:56.399Z,17.77
2023-04-10T08:36:23.841Z,19.45
2023-04-10T08:38:50.771Z,18.08
2023-04-10T08:41:19.473Z,19.38
2023-04-10T08:43:47.042Z,19.20
2023-04-10T08:46:15.168Z,19.33
2023-04-10T08:48:46.318Z,18.20
2023-04-10T08:51:20.279Z,19.20
2023-04-10T08:56:18.887Z,18.42
2023-04-10T08:58:46.293Z,18.25
2023-04-10T09:01:13.824Z,18.75
2023-04-10T09:03:41.123Z,18.88
2023-04-10T09:06:09.202Z,17.73
2023-04-10T09:08:36.142Z,18.40
2023-04-10T09:11:06.226Z,18.92
2023-04-10T09:13:39.395Z,20.65
2023-04-10T09:16:07.496Z,18.98
2023-04-10T09:18:44.853Z,29.90
2023-04-10T09:21:13.985Z,20.40
2023-04-10T09:23:42.777Z,20.40
2023-04-10T09:26:30.182Z,20.17
2023-04-10T09:29:07.855Z,20.63
2023-04-10T09:31:36.738Z,19.65
2023-04-10T09:34:23.072Z,19.77
2023-04-10T09:36:58.073Z,20.65
2023-04-10T09:39:37.002Z,20.13
2023-04-10T09:42:04.509Z,18.67
2023-04-10T09:44:42.006Z,19.20
2023-04-10T09:47:14.844Z,17.55
2023-04-10T09:49:49.144Z,17.75
2023-04-10T09:54:55.446Z,17.77
2023-04-10T09:57:24.135Z,18.83
2023-04-10T09:59:55.957Z,19.15
2023-04-10T10:02:26.124Z,18.70
2023-04-10T10:04:53.199Z,19.10
2023-04-10T10:07:23.042Z,18.15
2023-04-10T10:09:52.818Z,16.80
2023-04-10T10:12:24.543Z,17.75
2023-04-10T10:15:10.807Z,19.38
2023-04-10T10:18:04.294Z,18.27
2023-04-10T10:20:36.545Z,17.30
2023-04-10T10:23:04.360Z,18.08
2023-04-10T10:25:31.833Z,18.48
2023-04-10T10:28:03.460Z,18.33
2023-04-10T10:30:34.242Z,17.80
2023-04-10T10:33:03.126Z,18.33
2023-04-10T10:35:36.140Z,18.55
2023-04-10T10:38:04.829Z,17.70
2023-04-10T10:40:35.556Z,16.90
2023-04-10T10:43:08.538Z,17.27
2023-04-10T10:45:48.812Z,16.88
2023-04-10T10:48:15.853Z,18.50
2023-04-10T10:50:53.135Z,18.23
2023-04-10T10:53:44.066Z,17.63
2023-04-10T10:56:20.036Z,17.55
2023-04-10T10:58:48.180Z,16.95
2023-04-10T11:01:16.074Z,18.48
2023-04-10T11:03:46.791Z,17.02
2023-04-10T11:06:19.710Z,16.88
2023-04-10T11:08:53.273Z,16.08
2023-04-10T11:11:25.287Z,16.17
2023-04-10T11:13:57.818Z,17.17
2023-04-10T11:16:31.695Z,17.20
2023-04-10T11:19:10.465Z,17.27
2023-04-10T11:22:04.820Z,17.10
2023-04-10T11:24:52.308Z,17.40
2023-04-10T11:27:43.954Z,16.73
2023-04-10T11:30:33.683Z,18.15
2023-04-10T11:33:01.690Z,16.00
2023-04-10T11:35:29.195Z,15.32
2023-04-10T11:38:13.752Z,15.80
2023-04-10T11:43:29.052Z,16.23
2023-04-10T11:46:07.659Z,15.15
2023-04-10T11:48:35.576Z,15.50
2023-04-10T11:51:10.057Z,16.02
2023-04-10T11:53:37.984Z,16.95
2023-04-10T11:56:07.560Z,15.00
2023-04-10T11:58:34.407Z,15.15
2023-04-10T12:01:04.868Z,16.85
2023-04-10T12:03:49.931Z,14.30
2023-04-10T12:06:17.253Z,14.88
2023-04-10T12:08:46.333Z,15.93
2023-04-10T12:11:14.614Z,15.45
2023-04-10T12:13:41.550Z,16.73
2023-04-10T12:16:11.051Z,16.13
2023-04-10T12:18:38.432Z,17.13
2023-04-10T12:21:08.142Z,17.40
2023-04-10T12:23:38.444Z,15.27
2023-04-10T12:26:16.772Z,16.58
2023-04-10T12:28:52.600Z,17.25
2023-04-10T12:31:31.099Z,15.00
2023-04-10T12:33:59.224Z,15.70
2023-04-10T12:36:30.036Z,14.57
2023-04-10T12:38:58.536Z,15.60
2023-04-10T12:41:29.635Z,14.48
2023-04-10T12:44:11.405Z,15.85
2023-04-10T12:46:39.317Z,16.35
2023-04-10T12:49:13.879Z,14.85
2023-04-10T12:51:51.939Z,15.85
2023-04-10T12:54:32.240Z,15.07
2023-04-10T12:57:00.022Z,16.30
2023-04-10T12:59:28.027Z,15.80
2023-04-10T13:01:55.662Z,15.05
2023-04-10T13:04:23.976Z,15.93
2023-04-10T13:06:53.951Z,14.98
2023-04-10T13:09:21.320Z,16.23
2023-04-10T13:11:50.262Z,15.60
2023-04-10T13:14:18.583Z,15.60
2023-04-10T13:16:45.672Z,16.35
2023-04-10T13:19:13.248Z,15.30
2023-04-10T13:21:40.252Z,14.75
2023-04-10T13:24:07.340Z,17.08
2023-04-10T13:26:34.303Z,16.73
2023-04-10T13:29:01.182Z,16.52
2023-04-10T13:31:28.220Z,15.70
2023-04-10T13:33:55.262Z,15.65
2023-04-10T13:36:22.591Z,15.30
2023-04-10T13:38:49.743Z,15.80
2023-04-10T13:41:16.642Z,15.57
2023-04-10T13:43:43.518Z,15.07
2023-04-10T13:46:10.483Z,16.17
2023-04-10T13:48:41.500Z,15.98
2023-04-10T13:51:09.042Z,15.95
2023-04-10T13:53:36.126Z,15.57
2023-04-10T13:56:03.095Z,16.95
2023-04-10T13:58:32.179Z,17.10
2023-04-10T14:00:59.470Z,15.55
2023-04-10T14:03:26.518Z,15.25
2023-04-10T14:05:54.517Z,14.52
2023-04-10T14:08:21.394Z,15.65
2023-04-10T14:10:51.848Z,15.40
2023-04-10T14:13:19.231Z,16.65
2023-04-10T14:15:46.555Z,15.30
2023-04-10T14:18:17.572Z,15.77
2023-04-10T14:20:44.854Z,16.17
2023-04-10T14:23:18.451Z,16.30
2023-04-10T14:25:46.510Z,15.35
2023-04-10T14:28:19.226Z,17.08
2023-04-10T14:30:48.637Z,16.40
2023-04-10T14:33:16.482Z,15.75
2023-04-10T14:35:44.462Z,15.60
2023-04-10T14:38:11.810Z,16.60
2023-04-10T14:40:40.826Z,16.05
2023-04-10T14:43:07.964Z,19.38
2023-04-10T14:45:34.913Z,15.00
2023-04-10T14:48:02.756Z,16.50
2023-04-10T14:50:32.066Z,15.93
2023-04-10T14:53:02.606Z,15.38
2023-04-10T14:55:30.154Z,15.68
2023-04-10T14:57:58.620Z,18.15
2023-04-10T15:00:26.238Z,16.85
2023-04-10T15:02:53.296Z,16.35
2023-04-10T15:05:20.385Z,16.20
2023-04-10T15:07:47.207Z,17.55
2023-04-10T15:10:14.097Z,16.63
2023-04-10T15:12:41.043Z,14.73
2023-04-10T15:15:08.331Z,16.63
2023-04-10T15:17:35.523Z,15.57
2023-04-10T15:20:02.430Z,15.55
2023-04-10T15:22:29.598Z,16.73
2023-04-10T15:24:56.659Z,15.52
2023-04-10T15:27:23.507Z,15.07
2023-04-10T15:29:50.425Z,16.13
2023-04-10T15:32:17.320Z,16.65
2023-04-10T15:34:44.826Z,15.88
2023-04-10T15:37:11.754Z,16.60
2023-04-10T15:39:38.771Z,17.65
2023-04-10T15:42:08.391Z,15.88
2023-04-10T15:44:35.456Z,16.27
2023-04-10T15:47:02.361Z,16.15
2023-04-10T15:49:37.606Z,15.90
2023-04-10T15:52:06.715Z,15.35
2023-04-10T15:54:34.214Z,16.02
2023-04-10T15:57:02.327Z,14.82
2023-04-10T15:59:29.741Z,14.80
2023-04-10T16:01:56.801Z,14.32
2023-04-10T16:04:24.209Z,15.15
2023-04-10T16:06:51.439Z,14.77
2023-04-10T16:09:25.316Z,14.45
2023-04-10T16:11:54.029Z,15.02
2023-04-10T16:14:20.915Z,14.93
2023-04-10T16:16:47.887Z,14.73
2023-04-10T16:19:14.761Z,15.05
2023-04-10T16:21:45.148Z,15.30
2023-04-10T16:24:12.027Z,14.85
2023-04-10T16:26:39.067Z,14.65
2023-04-10T16:29:06.637Z,14.98
2023-04-10T16:31:33.605Z,13.98
2023-04-10T16:34:01.516Z,14.93
2023-04-10T16:36:28.433Z,13.77
2023-04-10T16:38:55.692Z,14.13
2023-04-10T16:41:23.029Z,15.60
2023-04-10T16:43:50.096Z,15.82
2023-04-10T16:46:16.974Z,14.82
2023-04-10T16:48:44.328Z,16.25
2023-04-10T16:51:17.857Z,15.52
2023-04-10T16:53:45.013Z,15.55
2023-04-10T16:56:12.025Z,13.52
2023-04-10T16:58:41.214Z,15.45
2023-04-10T17:01:26.171Z,14.93
2023-04-10T17:03:54.551Z,14.75
2023-04-10T17:06:21.427Z,15.60
2023-04-10T17:08:48.427Z,13.57
2023-04-10T17:11:16.138Z,14.68
2023-04-10T17:13:43.526Z,14.70
2023-04-10T17:16:10.809Z,15.40
2023-04-10T17:18:38.840Z,16.27
2023-04-10T17:21:06.082Z,15.25
2023-04-10T17:23:32.912Z,14.90
2023-04-10T17:25:59.938Z,14.05
2023-04-10T17:28:26.794Z,14.98
2023-04-10T17:30:53.755Z,14.07
2023-04-10T17:33:21.894Z,14.60
2023-04-10T17:35:50.745Z,14.93
2023-04-10T17:38:18.262Z,15.13
2023-04-10T17:40:46.304Z,14.90
2023-04-10T17:43:13.213Z,15.73
2023-04-10T17:45:40.285Z,14.15
2023-04-10T17:48:07.818Z,13.98
2023-04-10T17:50:35.407Z,12.82
2023-04-10T17:53:02.455Z,14.38
2023-04-10T17:55:29.404Z,13.15
2023-04-10T17:57:59.201Z,20.48
2023-04-10T18:00:26.589Z,14.45
2023-04-10T18:02:59.936Z,13.23
2023-04-10T18:05:31.076Z,16.07
2023-04-10T18:07:57.932Z,13.73
2023-04-10T18:10:24.718Z,14.32
2023-04-10T18:12:51.705Z,13.10
2023-04-10T18:15:18.861Z,14.35
2023-04-10T18:17:45.790Z,14.07
2023-04-10T18:20:12.786Z,13.38
2023-04-10T18:22:39.828Z,14.23
2023-04-10T18:25:07.419Z,12.68
2023-04-10T18:27:36.023Z,13.45
2023-04-10T18:30:03.038Z,13.65
2023-04-10T18:32:30.022Z,13.18
2023-04-10T18:34:56.881Z,11.63
2023-04-10T18:37:23.823Z,12.52
2023-04-10T18:39:50.798Z,13.02
2023-04-10T18:42:17.803Z,13.13
2023-04-10T18:44:44.918Z,13.05
2023-04-10T18:47:11.797Z,13.23
2023-04-10T18:49:38.743Z,12.68
2023-04-10T18:52:05.705Z,12.07
2023-04-10T18:54:33.956Z,13.15
2023-04-10T18:57:01.209Z,13.25
2023-04-10T18:59:28.894Z,12.70
2023-04-10T19:01:55.842Z,12.35
2023-04-10T19:04:22.986Z,13.00
2023-04-10T19:06:50.193Z,14.23
2023-04-10T19:09:17.372Z,12.02
2023-04-10T19:11:44.543Z,12.95
2023-04-10T19:14:11.399Z,11.70
2023-04-10T19:16:38.380Z,11.60
2023-04-10T19:19:05.442Z,11.73
2023-04-10T19:21:32.608Z,12.35
2023-04-10T19:23:59.661Z,11.20
2023-04-10T19:26:26.665Z,10.90
2023-04-10T19:41:26.315Z,10.50
2023-04-10T19:43:54.380Z,9.98
2023-04-10T19:46:22.379Z,9.52
2023-04-10T19:48:59.887Z,9.60
2023-04-10T19:51:28.112Z,10.98
2023-04-10T19:53:58.567Z,9.38
2023-04-10T19:56:27.787Z,9.82
2023-04-10T19:58:54.781Z,10.82
2023-04-10T20:01:24.262Z,9.45
2023-04-10T20:03:51.611Z,8.80
2023-04-10T20:06:18.828Z,10.48
2023-04-10T20:08:45.886Z,9.55
2023-04-10T20:11:12.749Z,8.88
2023-04-10T20:13:40.972Z,10.85
2023-04-10T20:16:08.690Z,10.35
2023-04-10T20:18:36.235Z,10.18
2023-04-10T20:21:04.681Z,9.70
2023-04-10T20:23:31.918Z,10.90
2023-04-10T20:25:58.904Z,14.02
2023-04-10T20:28:25.808Z,13.35
2023-04-10T20:30:52.704Z,13.95
2023-04-10T20:33:19.566Z,14.25
2023-04-10T20:35:46.574Z,16.08
2023-04-10T20:38:13.460Z,12.75
2023-04-10T20:40:40.594Z,15.02
2023-04-10T20:43:11.860Z,16.35
2023-04-10T20:45:39.634Z,13.10
2023-04-10T20:48:08.325Z,15.15
2023-04-10T20:50:37.033Z,16.73
2023-04-10T20:53:04.077Z,15.77
2023-04-10T20:55:31.092Z,15.45
2023-04-10T20:57:58.801Z,12.90
2023-04-10T21:00:25.887Z,16.73
2023-04-10T21:02:54.390Z,15.50
2023-04-10T21:05:21.450Z,15.60
2023-04-10T21:07:53.905Z,16.67
2023-04-10T21:10:21.332Z,15.70
2023-04-10T21:12:54.040Z,16.35
2023-04-10T21:15:22.642Z,19.08
2023-04-10T21:17:49.575Z,16.08
2023-04-10T21:20:21.373Z,16.00
2023-04-10T21:22:51.425Z,15.15
2023-04-10T21:25:21.247Z,14.18
2023-04-10T21:27:48.104Z,17.67
2023-04-10T21:30:15.211Z,16.67
2023-04-10T21:32:42.178Z,19.63
2023-04-10T21:35:09.677Z,16.73
2023-04-10T21:37:39.279Z,18.48
2023-04-10T21:40:09.445Z,18.90
2023-04-10T21:42:44.105Z,21.25
2023-04-10T21:45:13.839Z,18.02
2023-04-10T21:47:49.561Z,17.15
2023-04-10T21:50:16.527Z,19.90
2023-04-10T21:52:43.399Z,17.08
2023-04-10T21:55:10.794Z,18.42
2023-04-10T21:57:38.126Z,19.02
2023-04-10T22:00:05.421Z,17.50
2023-04-10T22:02:32.655Z,20.60
2023-04-10T22:04:59.809Z,23.75
2023-04-10T22:07:27.016Z,23.20
2023-04-10T22:09:56.382Z,17.65
2023-04-10T22:12:23.221Z,22.88
2023-04-10T22:14:51.320Z,26.00
2023-04-10T22:17:18.216Z,23.65
2023-04-10T22:19:45.211Z,27.52
2023-04-10T22:22:12.181Z,22.58
2023-04-10T22:24:39.056Z,17.45
2023-04-10T22:27:06.112Z,20.50
2023-04-10T22:29:35.139Z,21.20
2023-04-10T22:32:02.170Z,52.70
2023-04-10T22:34:29.090Z,23.40
2023-04-10T22:36:56.024Z,21.50
2023-04-10T22:39:22.869Z,15.35
2023-04-10T22:41:49.751Z,21.08
2023-04-10T22:44:16.622Z,15.10
2023-04-10T22:46:44.036Z,17.92
2023-04-10T22:49:10.984Z,15.70
2023-04-10T22:51:37.799Z,14.65
2023-04-10T22:54:04.684Z,19.25
2023-04-10T22:56:31.997Z,17.05
2023-04-10T22:58:58.792Z,15.77
2023-04-10T23:01:25.746Z,17.23
2023-04-10T23:03:53.974Z,15.82
2023-04-10T23:06:21.203Z,20.13
2023-04-10T23:08:48.117Z,19.83
2023-04-10T23:11:15.002Z,15.27
2023-04-10T23:13:43.231Z,21.00
2023-04-10T23:16:10.623Z,16.92
2023-04-10T23:18:37.733Z,20.52
2023-04-10T23:21:08.904Z,18.13
2023-04-10T23:23:35.813Z,18.85
2023-04-10T23:26:02.839Z,16.88
2023-04-10T23:28:29.680Z,16.00
2023-04-10T23:30:56.748Z,17.70
2023-04-10T23:33:23.766Z,25.55
2023-04-10T23:35:50.702Z,19.17
2023-04-10T23:38:17.720Z,22.92
2023-04-10T23:40:44.892Z,21.05
2023-04-10T23:43:11.908Z,20.00
2023-04-10T23:45:39.064Z,40.53
2023-04-10T23:48:08.960Z,18.73
2023-04-10T23:50:35.875Z,21.23
2023-04-10T23:53:02.999Z,17.23
2023-04-10T23:55:29.963Z,17.58
2023-04-10T23:57:56.941Z,21.25
